Wetterstation Vordersexau
Wetterdaten: Woche 21.03.11 - 27.03.11 (KW12)
Datum Zeit Temp. A. Feuchte A. Luftdruck Regen Wind Richtung Taupunkt Windchill Windben
21.03.2011 00:00 0,2 C 76 % 1029,7 hPa 0,0 l/m 0,0 km/h NO -3,5 C 0,2 C 0,0 km/h
21.03.2011 01:00 -0,7 C 80 % 1029,6 hPa 0,0 l/m 0,0 km/h NO -3,7 C -0,7 C 0,0 km/h
21.03.2011 02:00 -1,1 C 82 % 1029,6 hPa 0,0 l/m 0,0 km/h O-SO -3,8 C -1,1 C 0,0 km/h
21.03.2011 03:00 -2,2 C 83 % 1029,5 hPa 0,0 l/m 0,0 km/h SO -4,7 C -2,2 C 0,0 km/h
21.03.2011 04:00 -2,1 C 86 % 1029,6 hPa 0,0 l/m 0,0 km/h NO -4,1 C -2,1 C 0,0 km/h
21.03.2011 05:00 -2,7 C 86 % 1029,7 hPa 0,0 l/m 0,0 km/h W-SW -4,7 C -2,7 C 0,0 km/h
21.03.2011 06:00 -3,1 C 87 % 1030,2 hPa 0,0 l/m 0,0 km/h O-SO -4,9 C -3,1 C 0,0 km/h
21.03.2011 07:00 -2,4 C 88 % 1030,7 hPa 0,0 l/m 0,0 km/h W-NW -4,1 C -2,4 C 0,0 km/h
21.03.2011 08:00 5,4 C 75 % 1030,8 hPa 0,0 l/m 0,0 km/h SW 1,3 C 5,4 C 0,0 km/h
21.03.2011 09:00 8,9 C 66 % 1030,9 hPa 0,0 l/m 5,8 km/h SO 2,9 C 8,9 C 3,2 km/h
21.03.2011 10:00 14,4 C 43 % 1030,6 hPa 0,0 l/m 0,6 km/h O-SO 2,0 C 14,4 C 0,4 km/h
21.03.2011 11:00 16,2 C 37 % 1030,6 hPa 0,0 l/m 0,0 km/h NO 1,5 C 16,2 C 0,0 km/h
21.03.2011 12:00 15,8 C 36 % 1030,1 hPa 0,0 l/m 1,3 km/h SO 0,8 C 15,8 C 0,7 km/h
21.03.2011 13:00 15,5 C 34 % 1029,2 hPa 0,0 l/m 6,5 km/h SO -0,3 C 15,5 C 3,6 km/h
21.03.2011 14:00 17,9 C 32 % 1028,7 hPa 0,0 l/m 0,0 km/h O-SO 1,0 C 17,9 C 0,0 km/h
21.03.2011 15:00 20,2 C 27 % 1028,3 hPa 0,0 l/m 6,5 km/h N-NO 0,6 C 20,2 C 3,6 km/h
21.03.2011 16:00 22,2 C 25 % 1028,1 hPa 0,0 l/m 1,3 km/h O 1,2 C 22,2 C 0,7 km/h
21.03.2011 17:00 19,1 C 28 % 1028,7 hPa 0,0 l/m 0,0 km/h NO 0,2 C 19,1 C 0,0 km/h
21.03.2011 18:00 11,3 C 39 % 1029,2 hPa 0,0 l/m 0,0 km/h N-NO -2,1 C 11,3 C 0,0 km/h
21.03.2011 19:00 7,3 C 49 % 1029,7 hPa 0,0 l/m 0,0 km/h O-SO -2,7 C 7,3 C 0,0 km/h
21.03.2011 20:00 8,3 C 46 % 1029,9 hPa 0,0 l/m 5,8 km/h N-NO -2,6 C 8,3 C 3,2 km/h
21.03.2011 21:00 7,8 C 46 % 1030,4 hPa 0,0 l/m 0,0 km/h S -3,1 C 7,8 C 0,0 km/h
21.03.2011 22:00 4,7 C 55 % 1030,4 hPa 0,0 l/m 0,0 km/h NO -3,6 C 4,7 C 0,0 km/h
21.03.2011 23:00 1,6 C 66 % 1030,2 hPa 0,0 l/m 0,0 km/h O-NO -4,1 C 1,6 C 0,0 km/h
22.03.2011 00:00 0,5 C 72 % 1030,7 hPa 0,0 l/m 0,0 km/h O-NO -3,9 C 0,5 C 0,0 km/h
22.03.2011 01:00 -0,7 C 78 % 1030,6 hPa 0,0 l/m 0,0 km/h O -4,0 C -0,7 C 0,0 km/h
22.03.2011 02:00 -1,2 C 79 % 1030,3 hPa 0,0 l/m 0,0 km/h O-SO -4,4 C -1,2 C 0,0 km/h
22.03.2011 03:00 -2,1 C 81 % 1030,4 hPa 0,0 l/m 0,0 km/h O-NO -4,9 C -2,1 C 0,0 km/h
22.03.2011 04:00 -2,4 C 84 % 1030,8 hPa 0,0 l/m 0,0 km/h O -4,7 C -2,4 C 0,0 km/h
22.03.2011 05:00 -1,8 C 83 % 1031,2 hPa 0,0 l/m 0,0 km/h O-NO -4,3 C -1,8 C 0,0 km/h
22.03.2011 06:00 -2,2 C 83 % 1031,8 hPa 0,0 l/m 0,0 km/h O -4,7 C -2,2 C 0,0 km/h
22.03.2011 07:00 -1,1 C 84 % 1032,2 hPa 0,0 l/m 0,0 km/h O-NO -3,4 C -1,1 C 0,0 km/h
22.03.2011 08:00 8,6 C 65 % 1032,7 hPa 0,0 l/m 0,0 km/h N-NW 2,4 C 8,6 C 0,0 km/h
22.03.2011 09:00 11,1 C 51 % 1032,9 hPa 0,0 l/m 0,0 km/h W 1,4 C 11,1 C 0,0 km/h
22.03.2011 10:00 15,3 C 40 % 1032,8 hPa 0,0 l/m 0,0 km/h W 1,8 C 15,3 C 0,0 km/h
22.03.2011 11:00 14,9 C 44 % 1032,7 hPa 0,0 l/m 1,9 km/h W 2,8 C 14,9 C 1,1 km/h
22.03.2011 12:00 15,6 C 43 % 1032,3 hPa 0,0 l/m 1,9 km/h NW 3,1 C 15,6 C 1,1 km/h
22.03.2011 13:00 16,6 C 38 % 1031,9 hPa 0,0 l/m 2,6 km/h NW 2,2 C 16,6 C 1,4 km/h
22.03.2011 14:00 18,5 C 36 % 1031,1 hPa 0,0 l/m 5,2 km/h W 3,2 C 18,5 C 2,9 km/h
22.03.2011 15:00 16,3 C 40 % 1030,7 hPa 0,0 l/m 5,2 km/h S-SO 2,7 C 16,3 C 2,9 km/h
22.03.2011 16:00 21,5 C 33 % 1030,4 hPa 0,0 l/m 11,0 km/h SO 4,5 C 20,0 C 6,1 km/h
22.03.2011 17:00 22,6 C 30 % 1030,4 hPa 0,0 l/m 0,0 km/h O-NO 4,1 C 22,6 C 0,0 km/h
22.03.2011 18:00 14,2 C 36 % 1030,9 hPa 0,0 l/m 0,0 km/h NO -0,6 C 14,2 C 0,0 km/h
22.03.2011 19:00 8,8 C 50 % 1031,7 hPa 0,0 l/m 0,0 km/h SO -1,0 C 8,8 C 0,0 km/h
22.03.2011 20:00 5,9 C 61 % 1032,2 hPa 0,0 l/m 1,3 km/h NO -1,0 C 5,9 C 0,7 km/h
22.03.2011 21:00 4,9 C 62 % 1032,7 hPa 0,0 l/m 0,0 km/h O-SO -1,8 C 4,9 C 0,0 km/h
22.03.2011 22:00 3,7 C 69 % 1032,8 hPa 0,0 l/m 0,0 km/h O-NO -1,4 C 3,7 C 0,0 km/h
22.03.2011 23:00 3,7 C 71 % 1033,0 hPa 0,0 l/m 0,0 km/h N-NO -1,1 C 3,7 C 0,0 km/h
23.03.2011 00:00 2,1 C 76 % 1033,0 hPa 0,0 l/m 0,0 km/h N-NO -1,7 C 2,1 C 0,0 km/h
23.03.2011 01:00 1,0 C 80 % 1033,1 hPa 0,0 l/m 0,0 km/h O-NO -2,1 C 1,0 C 0,0 km/h
23.03.2011 02:00 1,7 C 80 % 1032,7 hPa 0,0 l/m 0,0 km/h NO -1,4 C 1,7 C 0,0 km/h
23.03.2011 03:00 1,6 C 79 % 1032,9 hPa 0,0 l/m 0,0 km/h O-NO -1,6 C 1,6 C 0,0 km/h
23.03.2011 04:00 0,4 C 81 % 1033,1 hPa 0,0 l/m 0,0 km/h O-NO -2,5 C 0,4 C 0,0 km/h
23.03.2011 05:00 -0,6 C 84 % 1033,5 hPa 0,0 l/m 0,0 km/h NO -3,0 C -0,6 C 0,0 km/h
23.03.2011 06:00 -0,2 C 85 % 1033,9 hPa 0,0 l/m 0,0 km/h NO -2,4 C -0,2 C 0,0 km/h
23.03.2011 07:00 0,1 C 86 % 1034,5 hPa 0,0 l/m 0,0 km/h W -2,0 C 0,1 C 0,0 km/h
23.03.2011 08:00 8,4 C 68 % 1034,7 hPa 0,0 l/m 0,0 km/h NW 2,8 C 8,4 C 0,0 km/h
23.03.2011 09:00 10,9 C 60 % 1034,6 hPa 0,0 l/m 0,0 km/h W 3,4 C 10,9 C 0,0 km/h
23.03.2011 10:00 14,9 C 52 % 1034,5 hPa 0,0 l/m 2,6 km/h SW 5,1 C 14,9 C 1,4 km/h
23.03.2011 11:00 16,5 C 48 % 1034,2 hPa 0,0 l/m 13,6 km/h S 5,5 C 13,4 C 7,6 km/h
23.03.2011 12:00 17,6 C 48 % 1033,5 hPa 0,0 l/m 3,2 km/h S-SW 6,5 C 17,6 C 1,8 km/h
23.03.2011 13:00 20,6 C 41 % 1032,5 hPa 0,0 l/m 0,0 km/h N-NO 6,9 C 20,6 C 0,0 km/h
23.03.2011 14:00 22,9 C 32 % 1031,6 hPa 0,0 l/m 13,0 km/h O-SO 5,3 C 21,2 C 7,2 km/h
23.03.2011 15:00 25,8 C 26 % 1031,0 hPa 0,0 l/m 1,3 km/h O 4,8 C 25,8 C 0,7 km/h
23.03.2011 16:00 26,6 C 24 % 1030,7 hPa 0,0 l/m 1,3 km/h NO 4,4 C 26,6 C 0,7 km/h
23.03.2011 17:00 22,9 C 26 % 1030,6 hPa 0,0 l/m 0,6 km/h NO 2,4 C 22,9 C 0,4 km/h
23.03.2011 18:00 16,9 C 36 % 1030,9 hPa 0,0 l/m 0,0 km/h N-NO 1,7 C 16,9 C 0,0 km/h
23.03.2011 19:00 11,6 C 48 % 1032,0 hPa 0,0 l/m 0,0 km/h O-NO 1,0 C 11,6 C 0,0 km/h
23.03.2011 20:00 7,9 C 62 % 1032,2 hPa 0,0 l/m 0,0 km/h NO 1,1 C 7,9 C 0,0 km/h
23.03.2011 21:00 7,8 C 69 % 1032,6 hPa 0,0 l/m 0,0 km/h O-SO 2,5 C 7,8 C 0,0 km/h
23.03.2011 22:00 7,6 C 71 % 1032,5 hPa 0,0 l/m 0,0 km/h NO 2,7 C 7,6 C 0,0 km/h
23.03.2011 23:00 6,8 C 74 % 1032,4 hPa 0,0 l/m 3,2 km/h NO 2,5 C 6,8 C 1,8 km/h
24.03.2011 00:00 6,1 C 76 % 1032,1 hPa 0,0 l/m 0,0 km/h NO 2,2 C 6,1 C 0,0 km/h
24.03.2011 01:00 3,8 C 79 % 1032,0 hPa 0,0 l/m 0,0 km/h NO 0,5 C 3,8 C 0,0 km/h
24.03.2011 02:00 3,9 C 82 % 1031,5 hPa 0,0 l/m 0,0 km/h NO 1,1 C 3,9 C 0,0 km/h
24.03.2011 03:00 3,4 C 84 % 1031,1 hPa 0,0 l/m 0,0 km/h NO 1,0 C 3,4 C 0,0 km/h
24.03.2011 04:00 2,1 C 86 % 1031,5 hPa 0,0 l/m 0,0 km/h O-SO 0,0 C 2,1 C 0,0 km/h
24.03.2011 05:00 1,1 C 86 % 1031,5 hPa 0,0 l/m 0,0 km/h O-SO -1,0 C 1,1 C 0,0 km/h
24.03.2011 06:00 0,9 C 87 % 1031,8 hPa 0,0 l/m 0,0 km/h S -1,0 C 0,9 C 0,0 km/h
24.03.2011 07:00 1,8 C 87 % 1032,0 hPa 0,0 l/m 0,0 km/h SW -0,1 C 1,8 C 0,0 km/h
24.03.2011 08:00 11,5 C 70 % 1032,1 hPa 0,0 l/m 0,0 km/h W-NW 6,2 C 11,5 C 0,0 km/h
24.03.2011 09:00 13,2 C 63 % 1032,3 hPa 0,0 l/m 1,3 km/h W 6,3 C 13,2 C 0,7 km/h
24.03.2011 10:00 18,1 C 50 % 1032,0 hPa 0,0 l/m 1,3 km/h W-SW 7,5 C 18,1 C 0,7 km/h
24.03.2011 11:00 17,4 C 51 % 1031,4 hPa 0,0 l/m 9,1 km/h SW 7,2 C 16,1 C 5,0 km/h
24.03.2011 12:00 18,1 C 49 % 1030,7 hPa 0,0 l/m 18,8 km/h SW 7,2 C 14,0 C 10,4 km/h
24.03.2011 13:00 19,9 C 46 % 1030,0 hPa 0,0 l/m 18,1 km/h W-SW 7,9 C 16,4 C 10,1 km/h
24.03.2011 14:00 21,9 C 41 % 1029,0 hPa 0,0 l/m 2,6 km/h W 8,0 C 21,9 C 1,4 km/h
24.03.2011 15:00 24,9 C 35 % 1028,1 hPa 0,0 l/m 5,8 km/h N-NW 8,4 C 24,9 C 3,2 km/h
24.03.2011 16:00 24,0 C 36 % 1027,5 hPa 0,0 l/m 7,1 km/h W 8,0 C 23,8 C 4,0 km/h
24.03.2011 17:00 22,5 C 38 % 1026,7 hPa 0,0 l/m 0,0 km/h W-NW 7,5 C 22,5 C 0,0 km/h
24.03.2011 18:00 17,2 C 50 % 1026,7 hPa 0,0 l/m 0,0 km/h NO 6,7 C 17,2 C 0,0 km/h
24.03.2011 19:00 12,1 C 66 % 1026,6 hPa 0,0 l/m 0,0 km/h O-NO 5,9 C 12,1 C 0,0 km/h
24.03.2011 20:00 9,9 C 73 % 1026,8 hPa 0,0 l/m 0,0 km/h O-SO 5,3 C 9,9 C 0,0 km/h
24.03.2011 21:00 8,4 C 78 % 1026,4 hPa 0,0 l/m 0,0 km/h O-SO 4,8 C 8,4 C 0,0 km/h
24.03.2011 22:00 7,9 C 81 % 1025,9 hPa 0,0 l/m 0,0 km/h O-NO 4,8 C 7,9 C 0,0 km/h
24.03.2011 23:00 7,2 C 83 % 1025,4 hPa 0,0 l/m 0,0 km/h NO 4,5 C 7,2 C 0,0 km/h
25.03.2011 00:00 6,6 C 84 % 1024,9 hPa 0,0 l/m 0,0 km/h NO 4,1 C 6,6 C 0,0 km/h
25.03.2011 01:00 5,8 C 85 % 1024,6 hPa 0,0 l/m 0,0 km/h O-NO 3,5 C 5,8 C 0,0 km/h
25.03.2011 02:00 5,0 C 86 % 1024,1 hPa 0,0 l/m 0,0 km/h O 2,9 C 5,0 C 0,0 km/h
25.03.2011 03:00 4,2 C 87 % 1023,3 hPa 0,0 l/m 0,0 km/h O-NO 2,2 C 4,2 C 0,0 km/h
25.03.2011 04:00 3,3 C 87 % 1023,2 hPa 0,0 l/m 0,0 km/h NO 1,3 C 3,3 C 0,0 km/h
25.03.2011 05:00 3,4 C 87 % 1022,3 hPa 0,0 l/m 0,0 km/h O-NO 1,4 C 3,4 C 0,0 km/h
25.03.2011 06:00 3,3 C 88 % 1022,1 hPa 0,0 l/m 0,0 km/h O 1,5 C 3,3 C 0,0 km/h
25.03.2011 07:00 5,2 C 87 % 1021,9 hPa 0,0 l/m 0,0 km/h O-SO 3,2 C 5,2 C 0,0 km/h
25.03.2011 08:00 9,9 C 79 % 1021,5 hPa 0,0 l/m 0,0 km/h O 6,4 C 9,9 C 0,0 km/h
25.03.2011 09:00 15,5 C 67 % 1021,1 hPa 0,0 l/m 0,0 km/h W 9,4 C 15,5 C 0,0 km/h
25.03.2011 10:00 19,0 C 40 % 1020,2 hPa 0,0 l/m 9,1 km/h S-SW 5,1 C 17,9 C 5,0 km/h
25.03.2011 11:00 20,2 C 36 % 1019,3 hPa 0,0 l/m 31,8 km/h SW 4,7 C 14,8 C 17,6 km/h
25.03.2011 12:00 21,5 C 34 % 1018,3 hPa 0,0 l/m 15,6 km/h W-SW 5,0 C 18,9 C 8,6 km/h
25.03.2011 13:00 22,4 C 33 % 1017,2 hPa 0,0 l/m 7,8 km/h W-SW 5,3 C 21,9 C 4,3 km/h
25.03.2011 14:00 23,8 C 30 % 1015,9 hPa 0,0 l/m 5,8 km/h S 5,2 C 23,8 C 3,2 km/h
25.03.2011 15:00 25,0 C 27 % 1015,0 hPa 0,0 l/m 19,4 km/h W-SW 4,7 C 22,7 C 10,8 km/h
25.03.2011 16:00 23,6 C 26 % 1014,2 hPa 0,0 l/m 20,7 km/h W-SW 3,0 C 20,8 C 11,5 km/h
25.03.2011 17:00 23,3 C 31 % 1013,7 hPa 0,0 l/m 3,2 km/h W 5,2 C 23,3 C 1,8 km/h
25.03.2011 18:00 18,2 C 37 % 1013,6 hPa 0,0 l/m 0,0 km/h N 3,3 C 18,2 C 0,0 km/h
25.03.2011 19:00 12,6 C 50 % 1013,6 hPa 0,0 l/m 0,0 km/h O-NO 2,5 C 12,6 C 0,0 km/h
25.03.2011 20:00 9,6 C 59 % 1014,0 hPa 0,0 l/m 0,0 km/h S-SO 2,0 C 9,6 C 0,0 km/h
25.03.2011 21:00 7,4 C 66 % 1014,3 hPa 0,0 l/m 0,0 km/h O-SO 1,5 C 7,4 C 0,0 km/h
25.03.2011 22:00 6,9 C 69 % 1014,4 hPa 0,0 l/m 0,0 km/h O-SO 1,6 C 6,9 C 0,0 km/h
25.03.2011 23:00 5,5 C 74 % 1014,4 hPa 0,0 l/m 0,0 km/h O-SO 1,2 C 5,5 C 0,0 km/h
26.03.2011 00:00 5,1 C 76 % 1014,1 hPa 0,0 l/m 0,0 km/h O-SO 1,2 C 5,1 C 0,0 km/h
26.03.2011 01:00 4,4 C 78 % 1014,1 hPa 0,0 l/m 0,0 km/h NO 0,9 C 4,4 C 0,0 km/h
26.03.2011 02:00 4,9 C 77 % 1013,9 hPa 0,0 l/m 0,0 km/h O-NO 1,2 C 4,9 C 0,0 km/h
26.03.2011 03:00 4,4 C 78 % 1013,6 hPa 0,0 l/m 0,0 km/h NO 0,9 C 4,4 C 0,0 km/h
26.03.2011 04:00 3,6 C 80 % 1013,6 hPa 0,0 l/m 0,0 km/h SO 0,5 C 3,6 C 0,0 km/h
26.03.2011 05:00 2,8 C 82 % 1013,7 hPa 0,0 l/m 0,0 km/h O-NO 0,0 C 2,8 C 0,0 km/h
26.03.2011 06:00 3,0 C 81 % 1013,6 hPa 0,0 l/m 0,0 km/h O-NO 0,1 C 3,0 C 0,0 km/h
26.03.2011 07:00 3,8 C 80 % 1013,9 hPa 0,0 l/m 0,0 km/h SO 0,7 C 3,8 C 0,0 km/h
26.03.2011 08:00 9,8 C 70 % 1013,6 hPa 0,0 l/m 11,0 km/h W-SW 4,6 C 6,8 C 6,1 km/h
26.03.2011 09:00 12,1 C 55 % 1013,8 hPa 0,0 l/m 9,7 km/h W 3,3 C 10,1 C 5,4 km/h
26.03.2011 10:00 14,1 C 52 % 1014,1 hPa 0,0 l/m 7,1 km/h W 4,4 C 13,7 C 4,0 km/h
26.03.2011 11:00 17,2 C 42 % 1013,7 hPa 0,0 l/m 0,0 km/h NW 4,2 C 17,2 C 0,0 km/h
26.03.2011 12:00 17,0 C 41 % 1013,1 hPa 0,0 l/m 15,6 km/h W-NW 3,7 C 13,4 C 8,6 km/h
26.03.2011 13:00 17,2 C 43 % 1013,0 hPa 0,0 l/m 18,8 km/h N-NO 4,5 C 12,9 C 10,4 km/h
26.03.2011 14:00 15,5 C 48 % 1012,8 hPa 0,0 l/m 4,5 km/h N-NO 4,5 C 15,5 C 2,5 km/h
26.03.2011 15:00 15,0 C 52 % 1012,6 hPa 0,0 l/m 0,0 km/h O-NO 5,2 C 15,0 C 0,0 km/h
26.03.2011 16:00 16,1 C 55 % 1012,3 hPa 0,0 l/m 0,0 km/h O 7,1 C 16,1 C 0,0 km/h
26.03.2011 17:00 14,3 C 58 % 1012,1 hPa 0,0 l/m 0,0 km/h NO 6,2 C 14,3 C 0,0 km/h
26.03.2011 18:00 12,1 C 63 % 1012,2 hPa 0,0 l/m 5,8 km/h O-NO 5,3 C 12,1 C 3,2 km/h
26.03.2011 19:00 11,1 C 67 % 1012,3 hPa 0,0 l/m 0,0 km/h O-NO 5,2 C 11,1 C 0,0 km/h
26.03.2011 20:00 11,1 C 67 % 1012,3 hPa 0,0 l/m 0,0 km/h SO 5,2 C 11,1 C 0,0 km/h
26.03.2011 21:00 10,3 C 72 % 1013,1 hPa 0,0 l/m 0,0 km/h NO 5,5 C 10,3 C 0,0 km/h
26.03.2011 22:00 9,1 C 76 % 1013,1 hPa 0,0 l/m 0,0 km/h SO 5,1 C 9,1 C 0,0 km/h
26.03.2011 23:00 7,8 C 80 % 1012,9 hPa 0,0 l/m 0,0 km/h O-NO 4,6 C 7,8 C 0,0 km/h
27.03.2011 00:00 7,3 C 82 % 1012,8 hPa 0,0 l/m 0,0 km/h O-NO 4,4 C 7,3 C 0,0 km/h
27.03.2011 01:00 7,0 C 83 % 1012,6 hPa 0,0 l/m 0,0 km/h SO 4,3 C 7,0 C 0,0 km/h
27.03.2011 02:00 7,2 C 84 % 1012,4 hPa 0,0 l/m 0,0 km/h SO 4,7 C 7,2 C 0,0 km/h
27.03.2011 03:00 7,4 C 84 % 1012,2 hPa 0,0 l/m 0,0 km/h NO 4,9 C 7,4 C 0,0 km/h
27.03.2011 04:00 6,9 C 85 % 1011,8 hPa 0,0 l/m 0,0 km/h NO 4,6 C 6,9 C 0,0 km/h
27.03.2011 05:00 6,8 C 85 % 1011,4 hPa 0,0 l/m 0,0 km/h NO 4,5 C 6,8 C 0,0 km/h
27.03.2011 06:00 6,6 C 86 % 1011,3 hPa 0,0 l/m 0,0 km/h W-NW 4,4 C 6,6 C 0,0 km/h
27.03.2011 07:00 6,8 C 87 % 1012,2 hPa 0,7 l/m 0,0 km/h SO 4,8 C 6,8 C 0,0 km/h
27.03.2011 08:00 7,2 C 87 % 1012,0 hPa 2,1 l/m 0,0 km/h SO 5,2 C 7,2 C 0,0 km/h
27.03.2011 09:00 8,1 C 87 % 1011,9 hPa 0,0 l/m 0,0 km/h NW 6,1 C 8,1 C 0,0 km/h
27.03.2011 10:00 8,7 C 87 % 1011,8 hPa 0,4 l/m 1,9 km/h W-NW 6,7 C 8,7 C 1,1 km/h
27.03.2011 11:00 8,8 C 87 % 1012,1 hPa 0,0 l/m 0,0 km/h W 6,8 C 8,8 C 0,0 km/h
27.03.2011 12:00 11,8 C 84 % 1011,5 hPa 0,0 l/m 0,0 km/h W 9,2 C 11,8 C 0,0 km/h
27.03.2011 13:00 16,8 C 69 % 1010,9 hPa 0,0 l/m 1,9 km/h W 11,1 C 16,8 C 1,1 km/h
27.03.2011 14:00 17,3 C 66 % 1010,1 hPa 0,0 l/m 0,0 km/h W-SW 10,9 C 17,3 C 0,0 km/h
27.03.2011 15:00 18,6 C 61 % 1009,6 hPa 0,0 l/m 0,0 km/h NW 10,9 C 18,6 C 0,0 km/h
27.03.2011 16:00 16,3 C 64 % 1009,1 hPa 0,0 l/m 0,0 km/h N-NW 9,5 C 16,3 C 0,0 km/h
27.03.2011 17:00 13,9 C 74 % 1009,0 hPa 0,0 l/m 0,0 km/h N-NW 9,3 C 13,9 C 0,0 km/h
27.03.2011 18:00 12,6 C 79 % 1008,8 hPa 0,0 l/m 0,0 km/h S-SW 9,1 C 12,6 C 0,0 km/h
27.03.2011 19:00 11,4 C 83 % 1009,0 hPa 0,0 l/m 0,0 km/h S-SO 8,6 C 11,4 C 0,0 km/h
27.03.2011 20:00 10,3 C 85 % 1009,3 hPa 0,0 l/m 0,0 km/h SO 7,9 C 10,3 C 0,0 km/h
27.03.2011 21:00 9,9 C 86 % 1009,5 hPa 0,0 l/m 0,0 km/h S-SO 7,7 C 9,9 C 0,0 km/h
27.03.2011 22:00 8,6 C 87 % 1009,7 hPa 0,0 l/m 0,0 km/h N-NO 6,6 C 8,6 C 0,0 km/h
27.03.2011 23:00 7,7 C 87 % 1009,6 hPa 0,0 l/m 0,0 km/h O-NO 5,7 C 7,7 C 0,0 km/h
Min-Datum _ 21.03.11 23.03.11 27.03.11 - 21.03.11 - 21.03.11 21.03.11 21.03.11
_ Min-Zeit 06:30 16:30 18:30 - 00:30 - 06:30 06:30 00:30
Minimum _ -3,1 C 24 % 1008,8 hPa - 0,0 km/h - -4,9 C -3,1 C 0,0 km/h
Max-Datum _ 23.03.11 21.03.11 23.03.11 27.03.11 25.03.11 - 27.03.11 23.03.11 25.03.11
_ Max-Zeit 16:30 07:30 08:30 08:30 11:30 - 13:30 16:30 11:30
Maximum _ 26,6 C 88 % 1034,7 hPa 2,1 l/m 31,8 km/h
SW
- 11,1 C 26,6 C 17,6 km/h
SW
Durchschnitt _ 10,1 C 64 % 1023,8 hPa #3,2 l/m 2,1 km/h NO 2,6 C 9,8 C 1,2 km/h
www.sexauwetter.de